KIAG/IAG METAR and TAF weather

Enter ICAO airport designator
Station Type Date Time Source
KIAG METAR 2019/07/17 19:09 UTC NOAA

KIAG 171909Z 21005KT 10SM SCT013 SCT027 26/22 A2988 RMK AO2 T02560217


Station Type Date Time Source
KIAG Decoded METAR 2019/07/17 19:09 UTC NOAA

NIAGARA FALLS INTERNATIONAL AIRPORT, NY, United States (KIAG) 43-07N 078-56W 182M
Jul 17, 2019 - 03:09 PM EDT / 2019.07.17 1909 UTC
Wind: from the SSW (210 degrees) at 6 MPH (5 KT):0
Visibility: 10 mile(s):0
Sky conditions: partly cloudy
Temperature: 78.1 F (25.6 C)
Dew Point: 71.1 F (21.7 C)
Relative Humidity: 79%
Pressure (altimeter): 29.88 in. Hg (1011 hPa)
ob: KIAG 171909Z 21005KT 10SM SCT013 SCT027 26/22 A2988 RMK AO2 T02560217
cycle: 19

Station Type Date Time Source
KIAG TAF 2019/07/17 18:42 UTC NOAA

TAF KIAG 171740Z 1718/1818 VRB03KT 6SM -SHRA OVC015
FM172000 VRB03KT P6SM BKN045
FM180600 VRB04KT P6SM BKN035
FM180900 VRB04KT P6SM BKN012
FM181500 VRB03KT P6SM BKN060

Example: see airport list